MAPA DE AEROPUERTO

INFORMACIÓN METAR y TAF

METAR FOR LEPA
ADDS - METARS form results

(2229 UTC 31 March 2020)
Data provider http://aviationweather.gov/metar/data/
 
METAR text: LEPA 312200Z 06010KT 9000 BKN018 OVC025 15/14 Q1012 NOSIG
Conditions at: LEPA (PALMA DE MALLORC, ES) observed 2200 UTC 31 March 2020
Temperature: 15.0°C (59°F)
Dewpoint: 14.0°C (57°F) [RH = 94%]
Pressure (altimeter): 29.88 inches Hg (1012.0 mb)
Winds: from the ENE (60 degrees) at 12 MPH (10 knots; 5.1 m/s)
Visibility: 6 miles ( 9 km)
Ceiling: 1800 feet AGL
Clouds: broken clouds at 1800 feet AGL
overcast cloud deck at 2500 feet AGL
Weather: no significant weather observed at this time

METAR text: LEPA 312130Z 07009KT 9000 BKN018 OVC025 15/13 Q1012 NOSIG
Conditions at: LEPA (PALMA DE MALLORC, ES) observed 2130 UTC 31 March 2020
Temperature: 15.0°C (59°F)
Dewpoint: 13.0°C (55°F) [RH = 88%]
Pressure (altimeter): 29.88 inches Hg (1012.0 mb)
Winds: from the ENE (70 degrees) at 10 MPH (9 knots; 4.6 m/s)
Visibility: 6 miles ( 9 km)
Ceiling: 1800 feet AGL
Clouds: broken clouds at 1800 feet AGL
overcast cloud deck at 2500 feet AGL
Weather: no significant weather observed at this time

Forecast for: LEPA (PALMA DE MALLORC, ES)
Text: TAF LEPA 311700Z 3118/0118 06006KT 9999 FEW020 TX18/0113Z TN11/0106Z
Forecast period: 1800 UTC 31 March 2020 to 1800 UTC 01 April 2020
Forecast type: FROM: standard forecast or significant change
Winds: from the ENE (60 degrees) at 7 MPH (6 knots; 3.1 m/s)
Visibility: 6 or more miles 10+ km)
Ceiling: at least 12,000 feet AGL
Clouds: few clouds at 2000 feet AGL
Weather: no significant weather forecast for this period
Text: PROB40
Forecast period: 1800 to 2000 UTC 31 March 2020
Forecast type: TEMPORARY: The following changes expected for less than half the time period
Winds: from the SE (140 degrees) at 13 MPH (11 knots; 5.7 m/s)
Visibility: missing
Ceiling: unknown
Clouds: missing
Weather: no significant weather forecast for this period
Text: TEMPO 3118/3120 14011KT
Forecast period: 2200 UTC 31 March 2020 to 0700 UTC 01 April 2020
Forecast type: TEMPORARY: The following changes expected for less than half the time period
Visibility: 1.24 miles (2.00 km)
Ceiling: 900 feet AGL
Clouds: broken clouds at 900 feet AGL
Weather: BR  (mist)
Text: PROB40
Forecast period: 1000 to 1800 UTC 01 April 2020
Forecast type: TEMPORARY: The following changes expected for less than half the time period
Visibility: 2.49 miles (4.01 km)
Ceiling: at least 12,000 feet AGL
Clouds: few clouds at 1000 feet AGL
Weather: SHRA  (rain showers)
Text: TEMPO 3122/0107 2000 BR BKN009
Forecast period: 1000 to 1800 UTC 01 April 2020
Forecast type: TEMPORARY: The following changes expected for less than half the time period
Visibility: 2.49 miles (4.01 km)
Ceiling: at least 12,000 feet AGL
Clouds: few clouds at 1000 feet AGL
Weather: TSRA  (rain associated with thunderstorm(s))